Time;durP1;ratioP1;P1;durP2;ratioP2;P2;SDS_P1;SDS_P2;PMS_P1;PMS_P2;Temp;Humidity;BMP_temperature;BMP_pressure;BME280_temperature;BME280_humidity;BME280_pressure;Samples;Min_cycle;Max_cycle;Signal;HPM_P1;HPM_P2
2020/12/29 00:02:06;;;;;;;3.95;2.40;;;8.10;83.60;;;;;;5089745;28;19912;-67
2020/12/29 00:04:32;;;;;;;7.13;2.80;;;8.10;83.70;;;;;;5071839;28;20043;-68
2020/12/29 00:06:58;;;;;;;;;;;8.00;84.40;;;;;;5090283;28;20028;-67
2020/12/29 00:09:27;;;;;;;4.07;2.72;;;8.10;84.30;;;;;;5089813;28;19908;-68
2020/12/29 00:11:54;;;;;;;6.57;4.15;;;8.10;84.30;;;;;;5089490;28;20161;-68
2020/12/29 00:14:21;;;;;;;3.92;2.20;;;8.10;84.10;;;;;;5089489;28;20131;-69
2020/12/29 00:16:47;;;;;;;7.05;4.53;;;8.10;84.80;;;;;;5089423;28;20032;-68
2020/12/29 00:19:21;;;;;;;4.32;2.60;;;8.00;86.00;;;;;;5089869;28;20024;-68
2020/12/29 00:21:47;;;;;;;4.85;3.10;;;8.00;86.40;;;;;;5089616;28;20028;-69
2020/12/29 00:24:13;;;;;;;;;;;7.90;87.00;;;;;;5090300;28;20737;-69
2020/12/29 00:26:39;;;;;;;11.20;4.35;;;7.80;88.60;;;;;;5089069;28;19908;-66
2020/12/29 00:29:04;;;;;;;10.18;5.25;;;7.70;89.10;;;;;;5089445;28;20028;-67
2020/12/29 00:31:30;;;;;;;;;;;7.60;89.80;;;;;;5089844;28;20047;-68
2020/12/29 00:33:56;;;;;;;7.88;4.88;;;7.60;90.00;;;;;;5089814;28;20038;-66
2020/12/29 00:36:22;;;;;;;;;;;7.60;90.30;;;;;;5089913;28;20165;-67
2020/12/29 00:38:48;;;;;;;7.90;4.55;;;7.50;90.70;;;;;;5089190;28;19915;-67
2020/12/29 00:41:13;;;;;;;;;;;7.50;90.70;;;;;;5088894;28;20032;-67
2020/12/29 00:43:40;;;;;;;7.38;4.60;;;7.40;90.90;;;;;;5089276;28;20384;-68
2020/12/29 00:46:07;;;;;;;8.50;4.85;;;7.50;90.80;;;;;;5089009;28;20036;-68
2020/12/29 00:48:33;;;;;;;10.48;5.63;;;7.40;91.20;;;;;;5089282;28;20105;-68
2020/12/29 00:51:13;;;;;;;9.15;3.72;;;7.40;91.10;;;;;;5088597;28;20081;-68
2020/12/29 00:53:39;;;;;;;7.35;4.15;;;7.50;91.00;;;;;;5088241;28;20024;-68
2020/12/29 00:56:05;;;;;;;;;;;7.60;90.80;;;;;;5088938;28;20073;-68
2020/12/29 00:58:31;;;;;;;6.72;3.40;;;7.50;91.00;;;;;;5089107;28;20334;-67
2020/12/29 01:00:56;;;;;;;;;;;7.50;90.70;;;;;;5089295;28;20033;-67
2020/12/29 01:03:22;;;;;;;9.40;5.07;;;7.60;90.80;;;;;;5088528;28;19908;-65
2020/12/29 01:05:48;;;;;;;;;;;7.50;90.80;;;;;;5070701;28;20127;-69
2020/12/29 01:08:14;;;;;;;6.22;3.72;;;7.50;90.90;;;;;;5070897;28;20007;-68
2020/12/29 01:10:40;;;;;;;;;;;7.40;90.90;;;;;;5088532;28;20511;-68
2020/12/29 01:13:06;;;;;;;4.78;3.40;;;7.50;90.80;;;;;;5089007;28;19904;-68
2020/12/29 01:15:32;;;;;;;9.20;3.05;;;7.40;91.20;;;;;;5088354;28;20185;-68
2020/12/29 01:17:58;;;;;;;8.35;3.47;;;7.40;91.30;;;;;;5088769;28;20052;-68
2020/12/29 01:20:25;;;;;;;;;;;7.30;91.50;;;;;;5089079;28;20059;-68
2020/12/29 01:22:52;;;;;;;6.05;4.00;;;7.30;91.10;;;;;;5088038;28;19912;-68
2020/12/29 01:25:18;;;;;;;11.55;3.83;;;7.30;91.40;;;;;;5069912;28;20531;-68
2020/12/29 01:27:45;;;;;;;9.43;3.90;;;7.30;91.30;;;;;;5088571;28;20024;-68
2020/12/29 01:30:10;;;;;;;5.65;3.22;;;7.30;91.30;;;;;;5088101;28;20032;-68
2020/12/29 01:32:36;;;;;;;;;;;7.30;91.00;;;;;;5070338;28;20032;-67
2020/12/29 01:35:02;;;;;;;5.65;3.55;;;7.30;90.90;;;;;;5088426;28;19907;-68
2020/12/29 01:37:28;;;;;;;6.45;3.35;;;7.40;90.30;;;;;;5069625;28;20024;-68
2020/12/29 01:39:54;;;;;;;;;;;7.50;89.80;;;;;;5088631;28;20099;-67
2020/12/29 01:42:19;;;;;;;5.82;3.30;;;7.50;90.40;;;;;;5087834;28;20022;-67
2020/12/29 01:44:45;;;;;;;5.53;2.95;;;7.50;90.10;;;;;;5088085;28;20040;-68
2020/12/29 01:47:11;;;;;;;;;;;7.50;90.10;;;;;;5088225;28;20067;-68
2020/12/29 01:49:37;;;;;;;6.72;3.13;;;7.40;90.90;;;;;;5088239;28;19915;-69
2020/12/29 01:52:03;;;;;;;7.80;4.10;;;7.40;90.90;;;;;;5087716;28;20134;-68
2020/12/29 01:54:28;;;;;;;;;;;7.40;91.40;;;;;;5087657;28;20495;-67
2020/12/29 01:56:54;;;;;;;10.05;4.40;;;7.30;91.80;;;;;;5087338;28;19908;-67
2020/12/29 01:59:20;;;;;;;;;;;7.20;92.10;;;;;;5070342;28;20162;-66
2020/12/29 02:01:45;;;;;;;8.50;4.20;;;7.10;92.40;;;;;;5087519;28;20002;-66
2020/12/29 02:04:14;;;;;;;;;;;7.10;92.60;;;;;;5069060;28;20021;-66
2020/12/29 02:06:40;;;;;;;12.52;4.18;;;7.00;93.00;;;;;;5087439;28;20003;-67
2020/12/29 02:09:07;;;;;;;;;;;7.00;93.00;;;;;;5087646;28;20107;-67
2020/12/29 02:11:33;;;;;;;13.13;4.90;;;7.00;93.20;;;;;;5087477;28;19904;-67
2020/12/29 02:13:59;;;;;;;;;;;7.00;93.20;;;;;;5087659;28;20032;-67
2020/12/29 02:16:25;;;;;;;9.65;4.38;;;7.00;93.20;;;;;;5069314;28;19915;-67
2020/12/29 02:18:50;;;;;;;;;;;7.00;93.10;;;;;;5069611;28;20025;-66
2020/12/29 02:21:16;;;;;;;6.90;3.90;;;7.00;93.00;;;;;;5086489;28;20407;-66
2020/12/29 02:23:42;;;;;;;10.88;4.88;;;7.10;92.90;;;;;;5087193;28;20086;-66
2020/12/29 02:26:07;;;;;;;;;;;7.10;92.90;;;;;;5087457;28;20151;-65
2020/12/29 02:28:33;;;;;;;6.20;3.97;;;7.00;93.10;;;;;;5087181;28;19915;-67
2020/12/29 02:30:59;;;;;;;;;;;7.00;93.20;;;;;;5087422;28;20040;-66
2020/12/29 02:33:24;;;;;;;9.45;4.15;;;7.00;93.20;;;;;;5069170;28;19912;-67
2020/12/29 02:35:50;;;;;;;;;;;7.00;93.30;;;;;;5069466;28;20028;-65
2020/12/29 02:38:23;;;;;;;8.77;4.93;;;6.90;93.40;;;;;;5087301;28;19995;-67
2020/12/29 02:40:49;;;;;;;8.80;4.72;;;6.90;93.40;;;;;;5068244;28;20078;-67
2020/12/29 02:43:16;;;;;;;10.50;5.38;;;6.90;93.50;;;;;;5087027;28;20693;-67
2020/12/29 02:45:41;;;;;;;9.05;4.95;;;6.90;93.70;;;;;;5086969;28;20119;-67
2020/12/29 02:48:07;;;;;;;;;;;6.90;93.80;;;;;;5087576;28;20111;-67
2020/12/29 02:50:33;;;;;;;6.60;4.10;;;6.90;93.90;;;;;;5068699;28;20045;-65
2020/12/29 02:52:59;;;;;;;;;;;6.90;94.00;;;;;;5086663;28;20076;-67
2020/12/29 02:55:25;;;;;;;6.28;3.45;;;6.90;94.00;;;;;;5086604;28;19922;-67
2020/12/29 02:57:51;;;;;;;5.00;3.28;;;7.00;94.10;;;;;;5086455;28;20035;-67
2020/12/29 03:00:16;;;;;;;;;;;7.00;94.20;;;;;;5068678;28;20032;-67
2020/12/29 03:02:42;;;;;;;7.75;4.10;;;7.00;94.40;;;;;;5068572;28;19927;-67
2020/12/29 03:05:07;;;;;;;;;;;7.00;94.60;;;;;;5086928;28;20040;-67
2020/12/29 03:07:33;;;;;;;6.63;4.43;;;7.00;94.70;;;;;;5068479;28;19910;-66
2020/12/29 03:09:59;;;;;;;5.38;3.63;;;7.00;94.80;;;;;;5068111;28;20023;-67
2020/12/29 03:12:24;;;;;;;;;;;7.00;94.90;;;;;;5087086;28;20067;-67
2020/12/29 03:14:50;;;;;;;7.22;3.65;;;7.00;94.90;;;;;;5085831;28;19990;-68
2020/12/29 03:17:15;;;;;;;6.38;3.88;;;6.90;94.90;;;;;;5086485;28;20042;-67
2020/12/29 03:19:41;;;;;;;;;;;6.90;95.00;;;;;;5068858;28;20543;-66
2020/12/29 03:22:07;;;;;;;7.47;3.97;;;7.00;94.90;;;;;;5086481;28;19904;-66
2020/12/29 03:24:32;;;;;;;;;;;7.00;94.90;;;;;;5085842;28;20072;-66
2020/12/29 03:26:58;;;;;;;7.40;3.35;;;7.00;94.90;;;;;;5086418;28;19924;-66
2020/12/29 03:29:24;;;;;;;;;;;6.90;94.80;;;;;;5086876;28;20377;-67
2020/12/29 03:31:50;;;;;;;5.75;3.28;;;6.90;94.70;;;;;;5086117;28;19995;-66
2020/12/29 03:34:22;;;;;;;;;;;6.90;94.70;;;;;;5068541;28;20020;-67
2020/12/29 03:36:48;;;;;;;5.47;3.40;;;6.90;94.60;;;;;;5086115;28;19915;-67
2020/12/29 03:39:14;;;;;;;;;;;6.90;94.60;;;;;;5086342;28;20028;-67
2020/12/29 03:41:39;;;;;;;5.70;3.17;;;6.90;94.60;;;;;;5085734;28;20392;-66
2020/12/29 03:44:05;;;;;;;;;;;6.90;94.60;;;;;;5086689;28;20496;-67
2020/12/29 03:46:30;;;;;;;9.50;3.17;;;6.90;94.50;;;;;;5084487;28;19969;-67
2020/12/29 03:48:57;;;;;;;;;;;6.90;94.50;;;;;;5086481;28;20028;-66
2020/12/29 03:51:23;;;;;;;9.93;4.13;;;6.80;94.50;;;;;;5085890;28;20600;-66
2020/12/29 03:53:48;;;;;;;;;;;6.80;94.60;;;;;;5086131;28;20082;-67
2020/12/29 03:56:14;;;;;;;5.43;3.60;;;6.80;94.60;;;;;;5086127;28;19915;-67
2020/12/29 03:58:40;;;;;;;;;;;6.80;94.70;;;;;;5086476;28;20103;-67
2020/12/29 04:01:06;;;;;;;8.32;3.00;;;6.80;94.50;;;;;;5068123;28;19908;-67
2020/12/29 04:03:31;;;;;;;;;;;6.80;94.10;;;;;;5086094;28;20033;-66
2020/12/29 04:05:57;;;;;;;4.47;2.58;;;6.90;93.90;;;;;;5086135;28;19912;-66
2020/12/29 04:08:22;;;;;;;;;;;6.90;93.60;;;;;;5067658;28;20635;-67
2020/12/29 04:10:48;;;;;;;5.78;1.85;;;6.80;93.40;;;;;;5085943;28;19904;-69
2020/12/29 04:13:14;;;;;;;4.43;2.00;;;6.80;93.40;;;;;;5086060;28;20126;-67
2020/12/29 04:15:39;;;;;;;6.15;2.25;;;6.80;93.50;;;;;;5085568;28;20056;-67
2020/12/29 04:18:05;;;;;;;;;;;6.80;93.40;;;;;;5086463;28;20032;-66
2020/12/29 04:20:30;;;;;;;5.30;2.10;;;6.80;93.10;;;;;;5067580;28;19914;-67
2020/12/29 04:22:56;;;;;;;;;;;6.80;92.80;;;;;;5085724;28;20046;-67
2020/12/29 04:25:21;;;;;;;6.32;1.60;;;6.80;92.30;;;;;;5085464;28;19964;-67
2020/12/29 04:27:47;;;;;;;;;;;6.90;91.70;;;;;;5087219;28;20043;-67
2020/12/29 04:30:13;;;;;;;3.92;1.30;;;6.90;91.50;;;;;;5071427;28;20330;-66
2020/12/29 04:32:38;;;;;;;;;;;6.80;91.60;;;;;;5089417;28;20036;-65
2020/12/29 04:35:06;;;;;;;3.17;1.38;;;6.80;91.40;;;;;;5089469;28;19935;-67
2020/12/29 04:37:31;;;;;;;3.92;1.55;;;6.80;91.20;;;;;;5089136;28;20081;-66
2020/12/29 04:39:57;;;;;;;;;;;6.70;91.30;;;;;;5089729;28;20408;-67
2020/12/29 04:42:23;;;;;;;5.40;1.33;;;6.50;91.60;;;;;;5089138;28;19903;-67
2020/12/29 04:44:50;;;;;;;3.92;1.50;;;6.40;92.00;;;;;;5088725;28;20032;-66
2020/12/29 04:47:15;;;;;;;2.33;1.23;;;6.50;91.60;;;;;;5089191;28;20035;-66
2020/12/29 04:49:41;;;;;;;;;;;6.40;91.50;;;;;;5089917;28;20571;-66
2020/12/29 04:52:08;;;;;;;3.22;1.25;;;6.40;91.50;;;;;;5089069;28;19908;-66
2020/12/29 04:54:39;;;;;;;4.80;1.15;;;6.30;91.70;;;;;;5088816;28;20039;-66
2020/12/29 04:57:07;;;;;;;2.40;0.95;;;6.20;91.90;;;;;;5089068;28;20027;-67
2020/12/29 04:59:33;;;;;;;2.42;0.85;;;6.10;92.10;;;;;;5088533;28;20028;-67
2020/12/29 05:02:00;;;;;;;2.92;1.23;;;6.00;92.30;;;;;;5088995;28;20032;-67
2020/12/29 05:04:26;;;;;;;2.58;1.08;;;5.90;92.40;;;;;;5089044;28;20515;-66
2020/12/29 05:06:52;;;;;;;;;;;5.90;92.50;;;;;;5088873;28;20028;-66
2020/12/29 05:09:21;;;;;;;5.32;1.13;;;5.90;92.40;;;;;;5069925;28;19911;-66
2020/12/29 05:11:47;;;;;;;3.50;0.75;;;6.00;92.40;;;;;;5088863;28;20624;-68
2020/12/29 05:14:13;;;;;;;;;;;6.10;92.40;;;;;;5070621;28;20123;-66
2020/12/29 05:16:39;;;;;;;2.20;0.90;;;6.10;92.30;;;;;;5088703;28;19920;-66
2020/12/29 05:19:07;;;;;;;5.57;1.02;;;6.00;92.40;;;;;;5088231;28;20388;-66
2020/12/29 05:21:35;;;;;;;3.85;1.38;;;6.10;92.50;;;;;;5088133;28;20020;-67
2020/12/29 05:24:22;;;;;;;2.97;0.77;;;6.10;92.60;;;;;;5088084;28;20150;-67
2020/12/29 05:26:59;;;;;;;8.40;1.08;;;6.10;92.50;;;;;;5088624;28;20077;-66
2020/12/29 05:29:26;;;;;;;2.40;0.80;;;6.20;92.30;;;;;;5088194;28;20112;-67
2020/12/29 05:31:52;;;;;;;3.20;1.00;;;6.20;92.40;;;;;;5087873;28;20556;-67
2020/12/29 05:34:24;;;;;;;4.13;0.80;;;6.10;92.40;;;;;;5070587;28;20077;-67
2020/12/29 05:36:50;;;;;;;1.80;0.68;;;6.10;92.40;;;;;;5087921;28;20032;-67
2020/12/29 05:39:17;;;;;;;2.97;0.60;;;6.10;92.20;;;;;;5087645;28;20052;-66
2020/12/29 05:41:51;;;;;;;2.05;0.85;;;6.10;92.40;;;;;;5087777;28;20024;-67
2020/12/29 05:44:25;;;;;;;5.15;0.80;;;6.00;92.70;;;;;;5087689;28;20119;-67
2020/12/29 05:46:50;;;;;;;2.67;0.77;;;5.90;92.40;;;;;;5087602;28;20046;-65
2020/12/29 05:49:19;;;;;;;;;;;5.90;92.50;;;;;;5088391;28;20032;-66
2020/12/29 05:51:50;;;;;;;3.20;0.98;;;5.70;92.50;;;;;;5087832;28;20375;-67
2020/12/29 05:54:17;;;;;;;4.90;0.60;;;5.70;92.70;;;;;;5069533;28;20176;-67
2020/12/29 05:56:44;;;;;;;2.80;0.80;;;5.50;92.90;;;;;;5088110;28;20059;-66
2020/12/29 05:59:12;;;;;;;1.45;0.65;;;5.50;93.10;;;;;;5087870;28;20024;-68
2020/12/29 06:01:40;;;;;;;2.20;0.50;;;5.50;93.40;;;;;;5087462;28;20492;-66
2020/12/29 06:04:06;;;;;;;4.43;0.57;;;5.50;93.50;;;;;;5087788;28;20020;-66
2020/12/29 06:06:32;;;;;;;;;;;5.50;93.50;;;;;;5088221;28;20028;-66
2020/12/29 06:09:02;;;;;;;1.73;0.57;;;5.60;93.50;;;;;;5086873;28;19904;-67
2020/12/29 06:11:39;;;;;;;1.92;0.68;;;5.60;93.50;;;;;;5087678;28;20525;-67
2020/12/29 06:14:13;;;;;;;1.60;0.90;;;5.60;93.60;;;;;;5087703;28;20028;-65
2020/12/29 06:16:40;;;;;;;1.17;0.50;;;5.60;93.60;;;;;;5069014;28;20036;-66
2020/12/29 06:19:27;;;;;;;2.75;0.90;;;5.60;93.70;;;;;;5087454;28;20035;-64
2020/12/29 06:22:03;;;;;;;2.67;0.80;;;5.60;93.70;;;;;;5087072;28;20055;-66
2020/12/29 06:24:31;;;;;;;2.95;0.80;;;5.60;93.70;;;;;;5086891;28;20050;-66
2020/12/29 06:27:00;;;;;;;7.97;1.08;;;5.60;93.70;;;;;;5087293;28;20024;-66
2020/12/29 06:29:37;;;;;;;4.50;1.60;;;5.60;93.70;;;;;;5087029;28;20031;-66
2020/12/29 06:32:14;;;;;;;2.83;0.82;;;5.70;93.70;;;;;;5087337;28;20111;-67
2020/12/29 06:34:42;;;;;;;2.20;0.75;;;5.70;93.60;;;;;;5086813;28;20054;-67
2020/12/29 06:37:25;;;;;;;5.28;0.80;;;5.70;93.50;;;;;;5086386;28;20035;-67
2020/12/29 06:39:57;;;;;;;1.65;0.50;;;5.60;93.50;;;;;;5087098;28;20790;-67
2020/12/29 06:42:23;;;;;;;1.80;0.80;;;5.60;93.50;;;;;;5087006;28;20020;-66
2020/12/29 06:44:57;;;;;;;2.10;0.60;;;5.60;93.40;;;;;;5086626;28;20118;-67
2020/12/29 06:47:24;;;;;;;3.03;0.55;;;5.70;93.30;;;;;;5087030;28;20012;-66
2020/12/29 06:49:52;;;;;;;1.20;0.40;;;5.70;93.30;;;;;;5086428;28;20063;-66
2020/12/29 06:52:23;;;;;;;2.42;0.63;;;5.60;93.20;;;;;;5086424;28;20024;-66
2020/12/29 06:54:53;;;;;;;3.35;0.60;;;5.60;93.20;;;;;;5086831;28;20552;-66
2020/12/29 06:57:33;;;;;;;3.25;0.68;;;5.60;93.20;;;;;;5086576;28;20062;-66
2020/12/29 07:00:21;;;;;;;4.30;0.60;;;5.50;93.00;;;;;;5086814;28;20097;-66
2020/12/29 07:02:49;;;;;;;2.22;0.52;;;5.50;93.00;;;;;;5085882;28;20101;-67
2020/12/29 07:05:20;;;;;;;1.27;0.40;;;5.40;93.00;;;;;;5086607;28;20050;-66
2020/12/29 07:07:59;;;;;;;5.80;0.70;;;5.40;93.10;;;;;;5086215;28;20108;-66
2020/12/29 07:10:33;;;;;;;0.77;0.40;;;5.30;93.10;;;;;;5086310;28;20488;-66
2020/12/29 07:13:04;;;;;;;2.05;0.50;;;5.30;93.20;;;;;;5086630;28;20031;-66
2020/12/29 07:15:31;;;;;;;1.33;0.60;;;5.30;93.20;;;;;;5086312;28;20767;-67
2020/12/29 07:18:04;;;;;;;2.10;0.60;;;5.30;93.20;;;;;;5068792;28;20047;-67
2020/12/29 07:20:35;;;;;;;2.58;0.60;;;5.50;93.50;;;;;;5086191;28;20020;-67
2020/12/29 07:23:08;;;;;;;4.43;0.65;;;5.80;93.20;;;;;;5067955;28;20119;-66
2020/12/29 07:25:35;;;;;;;1.70;0.68;;;6.20;92.30;;;;;;5085907;28;20048;-67
2020/12/29 07:28:06;;;;;;;1.02;0.50;;;6.60;91.10;;;;;;5067867;28;20047;-66
2020/12/29 07:30:35;;;;;;;1.45;0.60;;;6.80;90.30;;;;;;5086340;28;20495;-67
2020/12/29 07:33:03;;;;;;;1.42;0.50;;;7.00;89.80;;;;;;5086016;28;20099;-66
2020/12/29 07:35:32;;;;;;;1.85;0.52;;;7.10;89.90;;;;;;5085976;28;20626;-66
2020/12/29 07:38:00;;;;;;;4.03;1.00;;;7.20;89.30;;;;;;5086060;28;20024;-67
2020/12/29 07:40:26;;;;;;;3.15;0.70;;;7.20;88.40;;;;;;5085945;28;20054;-67
2020/12/29 07:42:52;;;;;;;;;;;7.30;88.00;;;;;;5086202;28;20551;-65
2020/12/29 07:45:18;;;;;;;3.58;0.98;;;7.40;86.00;;;;;;5086115;28;19916;-66
2020/12/29 07:47:43;;;;;;;;;;;7.40;85.80;;;;;;5086695;28;20032;-67
2020/12/29 07:50:09;;;;;;;4.40;1.10;;;7.50;85.40;;;;;;5068045;28;19957;-66
2020/12/29 07:52:34;;;;;;;;;;;7.60;84.70;;;;;;5086020;28;20028;-67
2020/12/29 07:55:17;;;;;;;4.72;1.60;;;7.80;83.60;;;;;;5086281;28;19963;-67
2020/12/29 07:57:43;;;;;;;3.17;1.67;;;7.90;83.70;;;;;;5086285;28;20088;-66
2020/12/29 08:00:13;;;;;;;;;;;8.00;82.60;;;;;;5086726;28;20024;-67
2020/12/29 08:02:39;;;;;;;5.82;1.70;;;8.10;82.00;;;;;;5088805;28;19958;-65
2020/12/29 08:05:06;;;;;;;4.63;1.58;;;8.20;81.80;;;;;;5089567;28;20032;-66
2020/12/29 08:07:31;;;;;;;4.03;2.03;;;8.30;81.60;;;;;;5089767;28;20074;-67
2020/12/29 08:09:57;;;;;;;;;;;8.50;81.50;;;;;;5090238;28;20056;-67
2020/12/29 08:12:23;;;;;;;5.47;2.72;;;8.70;81.90;;;;;;5089980;28;19908;-66
2020/12/29 08:14:48;;;;;;;;;;;9.00;81.10;;;;;;5090010;28;20020;-66
2020/12/29 08:17:14;;;;;;;6.68;1.88;;;9.20;78.70;;;;;;5089918;28;20330;-67
2020/12/29 08:19:40;;;;;;;;;;;9.40;77.60;;;;;;5089697;28;20032;-66
2020/12/29 08:22:07;;;;;;;4.65;1.40;;;9.60;76.20;;;;;;5089269;28;19908;-67
2020/12/29 08:24:33;;;;;;;3.17;1.15;;;9.70;75.90;;;;;;5089567;28;20084;-67
2020/12/29 08:26:58;;;;;;;;;;;9.90;75.20;;;;;;5090077;28;20060;-67
2020/12/29 08:29:25;;;;;;;4.22;1.45;;;10.10;74.00;;;;;;5089557;28;19904;-68
2020/12/29 08:32:24;;;;;;;4.30;1.88;;;10.30;73.00;;;;;;5089558;28;20249;-66
2020/12/29 08:34:50;;;;;;;5.60;1.70;;;10.40;73.00;;;;;;5044588;28;20464;-67
2020/12/29 08:37:22;;;;;;;7.15;2.20;;;10.40;72.90;;;;;;5088571;28;20567;-67
2020/12/29 08:39:54;;;;;;;3.53;1.52;;;10.30;72.80;;;;;;5088990;28;20028;-66
2020/12/29 08:42:21;;;;;;;5.40;1.95;;;10.10;72.90;;;;;;5070658;28;20024;-67
2020/12/29 08:44:47;;;;;;;7.15;3.53;;;10.00;73.40;;;;;;5089323;28;20028;-66
2020/12/29 08:47:13;;;;;;;;;;;10.00;71.30;;;;;;5089438;28;20028;-67
2020/12/29 08:49:39;;;;;;;15.80;9.82;;;9.80;70.70;;;;;;5089548;28;20437;-65
2020/12/29 08:52:05;;;;;;;;;;;9.70;71.90;;;;;;5089369;28;20056;-67
2020/12/29 08:54:38;;;;;;;6.07;2.17;;;9.60;72.70;;;;;;5089130;28;20394;-66
2020/12/29 08:57:06;;;;;;;7.38;4.40;;;9.40;73.90;;;;;;5089080;28;20097;-67
2020/12/29 08:59:41;;;;;;;7.57;3.95;;;9.40;74.60;;;;;;5088663;28;20086;-66
2020/12/29 09:02:07;;;;;;;65.70;44.47;;;9.40;74.30;;;;;;5088942;28;20598;-66
2020/12/29 09:04:33;;;;;;;;;;;9.40;74.20;;;;;;5089161;28;20036;-66
2020/12/29 09:07:13;;;;;;;16.38;10.57;;;9.30;74.20;;;;;;5088214;28;20372;-66
2020/12/29 09:09:51;;;;;;;59.72;39.42;;;9.30;74.90;;;;;;5070567;28;20513;-66
2020/12/29 09:12:22;;;;;;;51.13;37.72;;;9.20;74.90;;;;;;5088389;28;20035;-67
2020/12/29 09:14:59;;;;;;;9.88;5.20;;;9.20;75.40;;;;;;5069898;28;20016;-67
2020/12/29 09:17:27;;;;;;;12.32;3.90;;;9.20;75.00;;;;;;5088735;28;20028;-67
2020/12/29 09:20:19;;;;;;;8.48;2.00;;;9.10;75.40;;;;;;5088323;28;20883;-67
2020/12/29 09:23:18;;;;;;;4.47;1.80;;;9.10;75.60;;;;;;5088099;28;20028;-66
2020/12/29 09:25:44;;;;;;;5.30;2.72;;;9.10;75.00;;;;;;5043990;28;20055;-66
2020/12/29 09:28:10;;;;;;;;;;;9.00;75.60;;;;;;5088578;28;20460;-67
2020/12/29 09:30:35;;;;;;;4.43;1.75;;;9.00;76.00;;;;;;5088313;28;19915;-67
2020/12/29 09:33:01;;;;;;;;;;;9.00;75.60;;;;;;5088554;28;20032;-66
2020/12/29 09:35:27;;;;;;;9.45;2.17;;;9.00;75.90;;;;;;5070105;28;19908;-67
2020/12/29 09:37:53;;;;;;;;;;;9.10;75.20;;;;;;5070980;28;20027;-67
2020/12/29 09:40:19;;;;;;;5.03;2.05;;;9.20;74.90;;;;;;5087826;28;19943;-67
2020/12/29 09:42:45;;;;;;;;;;;9.10;75.10;;;;;;5088559;28;20059;-66
2020/12/29 09:45:10;;;;;;;6.53;1.95;;;9.10;75.80;;;;;;5087774;28;19912;-67
2020/12/29 09:47:36;;;;;;;;;;;9.20;75.90;;;;;;5069989;28;20058;-66
2020/12/29 09:50:02;;;;;;;7.13;2.88;;;9.10;75.20;;;;;;5087715;28;19911;-65
2020/12/29 09:52:30;;;;;;;14.32;4.97;;;9.00;75.80;;;;;;5088000;28;20043;-66
2020/12/29 09:54:57;;;;;;;8.48;2.78;;;9.00;76.60;;;;;;5087411;28;20016;-68
2020/12/29 09:57:22;;;;;;;;;;;8.90;76.50;;;;;;5088221;28;20089;-67
2020/12/29 09:59:48;;;;;;;6.68;3.15;;;8.80;76.70;;;;;;5087889;28;19912;-67
2020/12/29 10:02:13;;;;;;;;;;;8.70;77.20;;;;;;5088333;28;20028;-67
2020/12/29 10:04:39;;;;;;;4.68;1.52;;;8.60;78.40;;;;;;5086821;28;19908;-67
2020/12/29 10:07:04;;;;;;;;;;;8.60;78.30;;;;;;5088315;28;20069;-66
2020/12/29 10:09:30;;;;;;;5.25;2.00;;;8.50;78.40;;;;;;5087847;28;19904;-68
2020/12/29 10:11:55;;;;;;;;;;;8.50;79.00;;;;;;5069437;28;20119;-67
2020/12/29 10:14:21;;;;;;;5.40;1.40;;;8.50;79.10;;;;;;5068968;28;19908;-66
2020/12/29 10:16:46;;;;;;;;;;;8.50;79.50;;;;;;5088188;28;20547;-66
2020/12/29 10:19:12;;;;;;;5.95;1.45;;;8.50;79.30;;;;;;5086856;28;19904;-66
2020/12/29 10:21:38;;;;;;;;;;;8.40;80.00;;;;;;5088018;28;20028;-65
2020/12/29 10:24:03;;;;;;;9.90;2.08;;;8.30;80.80;;;;;;5087384;28;19912;-65
2020/12/29 10:26:29;;;;;;;;;;;8.30;80.80;;;;;;5068590;28;20089;-66
2020/12/29 10:28:54;;;;;;;9.13;4.85;;;8.20;81.20;;;;;;5087195;28;19908;-67
2020/12/29 10:31:20;;;;;;;;;;;8.20;81.70;;;;;;5087664;28;20031;-67
2020/12/29 10:33:46;;;;;;;7.85;2.83;;;8.10;82.30;;;;;;5068844;28;19915;-66
2020/12/29 10:36:11;;;;;;;;;;;8.00;82.90;;;;;;5087496;28;20032;-65
2020/12/29 10:38:37;;;;;;;3.97;2.05;;;8.00;83.10;;;;;;5087154;28;19908;-66
2020/12/29 10:41:02;;;;;;;;;;;8.00;82.80;;;;;;5068849;28;20503;-67
2020/12/29 10:43:28;;;;;;;9.30;2.13;;;8.00;83.20;;;;;;5086834;28;19908;-66
2020/12/29 10:45:53;;;;;;;;;;;8.10;83.70;;;;;;5087446;28;20187;-67
2020/12/29 10:48:19;;;;;;;5.60;2.28;;;8.00;83.90;;;;;;5087070;28;19953;-67
2020/12/29 10:50:45;;;;;;;;;;;8.00;84.20;;;;;;5086338;28;20081;-66
2020/12/29 10:53:11;;;;;;;4.00;1.77;;;8.00;84.50;;;;;;5086994;28;20109;-66
2020/12/29 10:55:37;;;;;;;4.63;2.70;;;8.00;84.60;;;;;;5086836;28;20028;-66
2020/12/29 10:58:02;;;;;;;;;;;8.00;85.00;;;;;;5087234;28;20039;-66
2020/12/29 11:00:28;;;;;;;7.60;3.92;;;8.10;85.40;;;;;;5086487;28;20299;-67
2020/12/29 11:02:53;;;;;;;;;;;8.20;84.90;;;;;;5086881;28;20156;-66
2020/12/29 11:05:19;;;;;;;6.50;2.90;;;8.30;83.90;;;;;;5068136;28;19920;-67
2020/12/29 11:07:44;;;;;;;;;;;8.30;83.10;;;;;;5087233;28;20020;-66
2020/12/29 11:10:10;;;;;;;56.35;33.08;;;8.40;83.00;;;;;;5086582;28;20431;-67
2020/12/29 11:12:36;;;;;;;;;;;8.50;82.30;;;;;;5068643;28;20032;-67
2020/12/29 11:15:02;;;;;;;25.08;12.27;;;8.50;82.30;;;;;;5086344;28;19904;-67
2020/12/29 11:17:28;;;;;;;41.90;21.45;;;8.50;82.10;;;;;;5086698;28;20149;-67
2020/12/29 11:19:53;;;;;;;;;;;8.60;81.40;;;;;;5068339;28;20119;-67
2020/12/29 11:22:19;;;;;;;9.48;5.75;;;8.60;80.70;;;;;;5086401;28;19908;-67
2020/12/29 11:24:45;;;;;;;;;;;8.70;80.20;;;;;;5086281;28;20051;-66
2020/12/29 11:27:10;;;;;;;30.77;18.20;;;8.80;79.70;;;;;;5085994;28;19919;-67
2020/12/29 11:29:36;;;;;;;;;;;8.80;79.80;;;;;;5086847;28;20031;-66
2020/12/29 11:32:02;;;;;;;15.23;8.93;;;9.00;79.10;;;;;;5085960;28;19908;-67
2020/12/29 11:34:27;;;;;;;;;;;9.00;77.40;;;;;;5085990;28;20028;-66
2020/12/29 11:36:53;;;;;;;18.92;10.45;;;9.00;76.90;;;;;;5085957;28;19914;-66
2020/12/29 11:39:18;;;;;;;;;;;9.00;76.60;;;;;;5086433;28;20403;-67
2020/12/29 11:41:50;;;;;;;20.88;9.50;;;9.10;75.40;;;;;;5086114;28;19904;-67
2020/12/29 11:44:15;;;;;;;56.15;30.85;;;9.20;75.50;;;;;;5085945;28;20616;-67
2020/12/29 11:46:41;;;;;;;;;;;9.30;75.40;;;;;;5086522;28;20040;-67
2020/12/29 11:49:06;;;;;;;32.88;21.25;;;9.40;75.60;;;;;;5085912;28;19915;-67
2020/12/29 11:51:32;;;;;;;;;;;9.40;75.90;;;;;;5086619;28;20103;-66
2020/12/29 11:53:58;;;;;;;18.83;11.70;;;9.50;75.90;;;;;;5086227;28;20363;-67
2020/12/29 11:56:24;;;;;;;40.78;23.70;;;9.50;75.50;;;;;;5086029;28;20131;-67
2020/12/29 11:58:49;;;;;;;;;;;9.50;74.70;;;;;;5086476;28;20158;-67
2020/12/29 12:01:15;;;;;;;9.43;5.32;;;9.50;74.10;;;;;;5085745;28;19908;-66
2020/12/29 12:03:40;;;;;;;;;;;9.50;74.90;;;;;;5085957;28;20043;-67
2020/12/29 12:06:06;;;;;;;8.63;4.05;;;9.40;75.10;;;;;;5085985;28;19916;-67
2020/12/29 12:08:32;;;;;;;;;;;9.40;75.10;;;;;;5086536;28;20638;-67
2020/12/29 12:10:57;;;;;;;5.55;2.80;;;9.40;74.30;;;;;;5085973;28;20026;-67
2020/12/29 12:13:23;;;;;;;;;;;9.30;74.90;;;;;;5086176;28;20051;-67
2020/12/29 12:15:49;;;;;;;9.10;4.30;;;9.20;75.10;;;;;;5086017;28;19908;-67
2020/12/29 12:18:14;;;;;;;;;;;9.20;75.40;;;;;;5085880;28;20024;-67
2020/12/29 12:20:40;;;;;;;6.30;3.42;;;9.20;75.60;;;;;;5085773;28;20366;-67
2020/12/29 12:23:05;;;;;;;;;;;9.10;75.40;;;;;;5068047;28;20035;-67
2020/12/29 12:25:31;;;;;;;7.18;3.97;;;9.10;76.40;;;;;;5085387;28;20319;-67
2020/12/29 12:27:56;;;;;;;;;;;9.00;77.00;;;;;;5085849;28;20613;-67
2020/12/29 12:30:22;;;;;;;11.38;4.15;;;9.00;77.30;;;;;;5085790;28;19908;-67
2020/12/29 12:32:47;;;;;;;;;;;8.90;77.60;;;;;;5085450;28;20129;-67
2020/12/29 12:35:13;;;;;;;7.93;4.20;;;9.00;77.80;;;;;;5085682;28;19914;-67
2020/12/29 12:37:38;;;;;;;;;;;9.00;77.30;;;;;;5086236;28;20538;-67
2020/12/29 12:40:04;;;;;;;8.50;4.07;;;9.10;76.40;;;;;;5085883;28;20011;-67
2020/12/29 12:42:29;;;;;;;;;;;9.10;76.80;;;;;;5086180;28;20035;-67
2020/12/29 12:44:55;;;;;;;10.93;2.70;;;9.20;75.70;;;;;;5085461;28;19918;-66
2020/12/29 12:47:21;;;;;;;;;;;9.30;75.40;;;;;;5085780;28;20082;-67
2020/12/29 12:49:46;;;;;;;9.43;5.70;;;9.30;75.40;;;;;;5088199;28;20427;-67
2020/12/29 12:52:12;;;;;;;;;;;9.40;75.20;;;;;;5089743;28;20063;-68
2020/12/29 12:54:37;;;;;;;5.55;1.52;;;9.50;74.50;;;;;;5070530;28;19908;-67
2020/12/29 12:57:03;;;;;;;;;;;9.60;73.90;;;;;;5089693;28;20095;-67
2020/12/29 12:59:28;;;;;;;35.75;17.10;;;9.60;73.30;;;;;;5088872;28;19908;-67
2020/12/29 13:01:54;;;;;;;;;;;9.70;74.20;;;;;;5089539;28;20483;-67
2020/12/29 13:04:21;;;;;;;9.37;3.13;;;9.80;73.80;;;;;;5070148;28;19908;-67
2020/12/29 13:06:47;;;;;;;9.13;4.75;;;9.70;74.40;;;;;;5088976;28;20068;-67
2020/12/29 13:09:13;;;;;;;;;;;9.70;75.20;;;;;;5089294;28;20028;-67
2020/12/29 13:11:38;;;;;;;17.27;4.10;;;9.80;74.30;;;;;;5088531;28;19908;-67
2020/12/29 13:14:04;;;;;;;;;;;9.70;74.60;;;;;;5089407;28;20107;-66
2020/12/29 13:16:31;;;;;;;7.40;2.92;;;9.70;74.50;;;;;;5088844;28;20283;-67
2020/12/29 13:18:56;;;;;;;19.58;10.23;;;9.80;73.90;;;;;;5070132;28;20055;-68
2020/12/29 13:21:22;;;;;;;;;;;9.90;73.70;;;;;;5089239;28;20534;-67
2020/12/29 13:23:47;;;;;;;33.63;19.92;;;9.90;73.60;;;;;;5088115;28;19916;-67